createdAt,value
2018-03-02T00:00:15.381Z,-6.66
2018-03-02T00:01:15.392Z,-6.49
2018-03-02T00:02:15.467Z,-6.44
2018-03-02T00:03:15.390Z,-6.50
2018-03-02T00:04:15.420Z,-6.54
2018-03-02T00:05:15.410Z,-6.52
2018-03-02T00:06:15.434Z,-6.52
2018-03-02T00:07:15.440Z,-6.50
2018-03-02T00:08:15.448Z,-6.61
2018-03-02T00:09:15.470Z,-6.71
2018-03-02T00:10:15.449Z,-6.44
2018-03-02T00:11:15.448Z,-6.58
2018-03-02T00:12:15.465Z,-6.63
2018-03-02T00:13:15.499Z,-6.65
2018-03-02T00:14:15.481Z,-6.68
2018-03-02T00:15:15.485Z,-6.60
2018-03-02T00:16:15.503Z,-6.50
2018-03-02T00:17:15.493Z,-6.79
2018-03-02T00:18:15.527Z,-6.66
2018-03-02T00:19:15.535Z,-6.79
2018-03-02T00:20:15.526Z,-6.81
2018-03-02T00:21:15.523Z,-6.68
2018-03-02T00:22:15.533Z,-6.86
2018-03-02T00:23:15.542Z,-6.69
2018-03-02T00:24:15.560Z,-6.81
2018-03-02T00:25:15.552Z,-6.81
2018-03-02T00:26:15.585Z,-6.66
2018-03-02T00:27:15.579Z,-6.71
2018-03-02T00:28:15.610Z,-6.83
2018-03-02T00:29:15.581Z,-6.96
2018-03-02T00:30:15.591Z,-6.79
2018-03-02T00:31:15.600Z,-6.79
2018-03-02T00:32:15.605Z,-6.83
2018-03-02T00:33:15.613Z,-6.61
2018-03-02T00:34:15.648Z,-6.63
2018-03-02T00:35:15.634Z,-6.86
2018-03-02T00:36:15.638Z,-6.68
2018-03-02T00:37:15.642Z,-6.78
2018-03-02T00:38:15.642Z,-6.92
2018-03-02T00:39:15.659Z,-6.79
2018-03-02T00:40:15.661Z,-6.92
2018-03-02T00:41:15.688Z,-7.04
2018-03-02T00:42:15.673Z,-6.90
2018-03-02T00:43:15.691Z,-6.86
2018-03-02T00:44:15.782Z,-6.99
2018-03-02T00:45:15.694Z,-6.89
2018-03-02T00:46:15.707Z,-6.69
2018-03-02T00:47:15.750Z,-6.93
2018-03-02T00:48:15.737Z,-6.86
2018-03-02T00:49:15.735Z,-7.10
2018-03-02T00:50:15.756Z,-6.94
2018-03-02T00:51:15.752Z,-6.92
2018-03-02T00:52:15.767Z,-6.97
2018-03-02T00:53:15.770Z,-6.89
2018-03-02T00:54:15.790Z,-6.84
2018-03-02T00:55:15.776Z,-6.81
2018-03-02T00:56:15.791Z,-6.89
2018-03-02T00:57:15.781Z,-7.04
2018-03-02T00:58:15.838Z,-7.07
2018-03-02T00:59:15.828Z,-6.66
2018-03-02T01:00:15.806Z,-6.87
2018-03-02T01:01:15.817Z,-7.08
2018-03-02T01:02:15.815Z,-6.93
2018-03-02T01:03:15.831Z,-7.03
2018-03-02T01:04:15.832Z,-7.04
2018-03-02T01:05:15.847Z,-7.00
2018-03-02T01:06:15.881Z,-7.11
2018-03-02T01:07:15.857Z,-7.04
2018-03-02T01:08:15.866Z,-7.04
2018-03-02T01:09:15.900Z,-7.05
2018-03-02T01:10:15.890Z,-7.15
2018-03-02T01:11:15.882Z,-7.11
2018-03-02T01:12:15.889Z,-7.11
2018-03-02T01:13:15.912Z,-6.97
2018-03-02T01:14:15.929Z,-7.05
2018-03-02T01:15:15.915Z,-7.07
2018-03-02T01:16:15.945Z,-7.08
2018-03-02T01:17:15.943Z,-7.13
2018-03-02T01:18:15.947Z,-7.11
2018-03-02T01:19:15.955Z,-7.08
2018-03-02T01:20:15.962Z,-7.18
2018-03-02T01:21:15.965Z,-7.11
2018-03-02T01:22:15.962Z,-7.15
2018-03-02T01:23:15.982Z,-7.18
2018-03-02T01:24:15.994Z,-7.18
2018-03-02T01:25:15.982Z,-7.15
2018-03-02T01:26:16.010Z,-7.10
2018-03-02T01:27:16.030Z,-7.17
2018-03-02T01:28:16.005Z,-7.31
2018-03-02T01:29:16.018Z,-7.21
2018-03-02T01:30:16.041Z,-7.29
2018-03-02T01:31:16.042Z,-7.11
2018-03-02T01:32:16.076Z,-6.99
2018-03-02T01:33:16.069Z,-7.07
2018-03-02T01:34:16.052Z,-7.31
2018-03-02T01:35:16.092Z,-7.15
2018-03-02T01:36:16.067Z,-7.26
2018-03-02T01:37:16.074Z,-7.31
2018-03-02T01:38:16.176Z,-7.31
2018-03-02T01:39:16.121Z,-7.32
2018-03-02T01:40:16.140Z,-7.32
2018-03-02T01:41:16.107Z,-7.17
2018-03-02T01:42:16.117Z,-7.10
2018-03-02T01:43:16.123Z,-7.17
2018-03-02T01:44:16.117Z,-7.14
2018-03-02T01:45:16.242Z,-7.22
2018-03-02T01:46:16.144Z,-7.38
2018-03-02T01:47:16.165Z,-7.28
2018-03-02T01:48:16.157Z,-7.14
2018-03-02T01:49:16.159Z,-7.21
2018-03-02T01:50:16.174Z,-7.25
2018-03-02T01:51:16.176Z,-7.13
2018-03-02T01:52:16.187Z,-7.15
2018-03-02T01:53:16.202Z,-7.22
2018-03-02T01:54:16.196Z,-7.33
2018-03-02T01:55:16.213Z,-7.43
2018-03-02T01:56:16.294Z,-7.38
2018-03-02T01:57:16.239Z,-7.31
2018-03-02T01:58:16.239Z,-7.32
2018-03-02T01:59:16.288Z,-7.22
2018-03-02T02:00:16.232Z,-7.33
2018-03-02T02:01:16.255Z,-7.35
2018-03-02T02:02:16.248Z,-7.31
2018-03-02T02:03:16.288Z,-7.42
2018-03-02T02:04:16.281Z,-7.42
2018-03-02T02:05:16.268Z,-7.46
2018-03-02T02:06:16.286Z,-7.32
2018-03-02T02:07:16.286Z,-7.36
2018-03-02T02:08:16.327Z,-7.22
2018-03-02T02:09:16.301Z,-7.36
2018-03-02T02:10:16.323Z,-7.28
2018-03-02T02:11:16.366Z,-7.42
2018-03-02T02:12:16.361Z,-7.29
2018-03-02T02:13:16.341Z,-7.32
2018-03-02T02:14:16.358Z,-7.28
2018-03-02T02:15:16.389Z,-7.26
2018-03-02T02:16:16.402Z,-7.31
2018-03-02T02:17:16.417Z,-7.33
2018-03-02T02:18:16.376Z,-7.28
2018-03-02T02:19:16.440Z,-7.26
2018-03-02T02:20:16.450Z,-7.33
2018-03-02T02:21:16.429Z,-7.36
2018-03-02T02:22:16.404Z,-7.47
2018-03-02T02:23:16.440Z,-7.47
2018-03-02T02:24:16.444Z,-7.49
2018-03-02T02:25:16.431Z,-7.43
2018-03-02T02:26:16.499Z,-7.21
2018-03-02T02:27:16.448Z,-7.43
2018-03-02T02:28:16.475Z,-7.42
2018-03-02T02:29:16.469Z,-7.46
2018-03-02T02:30:16.494Z,-7.43
2018-03-02T02:31:16.499Z,-7.46
2018-03-02T02:32:16.499Z,-7.49
2018-03-02T02:33:16.489Z,-7.50
2018-03-02T02:34:16.516Z,-7.43
2018-03-02T02:35:16.516Z,-7.49
2018-03-02T02:36:16.533Z,-7.56
2018-03-02T02:37:16.550Z,-7.60
2018-03-02T02:38:16.557Z,-7.63
2018-03-02T02:39:16.567Z,-7.54
2018-03-02T02:40:16.650Z,-7.60
2018-03-02T02:41:16.584Z,-7.72
2018-03-02T02:42:16.561Z,-7.63
2018-03-02T02:43:16.578Z,-7.65
2018-03-02T02:44:16.607Z,-7.63
2018-03-02T02:45:16.583Z,-7.63
2018-03-02T02:46:16.593Z,-7.82
2018-03-02T02:47:16.593Z,-7.65
2018-03-02T02:48:16.609Z,-7.56
2018-03-02T02:49:16.615Z,-7.65
2018-03-02T02:50:16.625Z,-7.54
2018-03-02T02:51:16.663Z,-7.44
2018-03-02T02:52:16.649Z,-7.44
2018-03-02T02:53:16.653Z,-7.36
2018-03-02T02:54:16.659Z,-7.61
2018-03-02T02:55:16.699Z,-7.58
2018-03-02T02:56:16.672Z,-7.67
2018-03-02T02:57:16.674Z,-7.64
2018-03-02T02:58:16.696Z,-7.86
2018-03-02T02:59:16.697Z,-7.82
2018-03-02T03:00:16.701Z,-7.68
2018-03-02T03:01:16.749Z,-7.78
2018-03-02T03:02:16.725Z,-7.68
2018-03-02T03:03:16.724Z,-7.63
2018-03-02T03:04:16.741Z,-7.64
2018-03-02T03:05:16.739Z,-7.68
2018-03-02T03:06:16.749Z,-7.74
2018-03-02T03:07:16.746Z,-7.72
2018-03-02T03:08:16.761Z,-7.86
2018-03-02T03:09:16.767Z,-7.70
2018-03-02T03:10:16.776Z,-7.63
2018-03-02T03:11:16.811Z,-7.78
2018-03-02T03:12:16.789Z,-7.89
2018-03-02T03:13:16.829Z,-7.89
2018-03-02T03:14:16.883Z,-7.83
2018-03-02T03:15:16.807Z,-7.60
2018-03-02T03:16:16.831Z,-7.58
2018-03-02T03:17:16.832Z,-7.44
2018-03-02T03:18:16.896Z,-7.71
2018-03-02T03:19:16.841Z,-7.68
2018-03-02T03:20:16.863Z,-7.67
2018-03-02T03:21:16.866Z,-7.54
2018-03-02T03:22:16.854Z,-7.67
2018-03-02T03:23:16.886Z,-7.82
2018-03-02T03:24:16.914Z,-7.72
2018-03-02T03:25:16.889Z,-7.78
2018-03-02T03:26:16.892Z,-7.68
2018-03-02T03:27:16.895Z,-7.89
2018-03-02T03:28:16.919Z,-8.01
2018-03-02T03:29:16.912Z,-7.86
2018-03-02T03:30:16.923Z,-7.70
2018-03-02T03:31:16.924Z,-7.96
2018-03-02T03:32:16.983Z,-7.83
2018-03-02T03:33:16.964Z,-7.89
2018-03-02T03:34:16.974Z,-8.01
2018-03-02T03:35:16.999Z,-7.91
2018-03-02T03:36:16.970Z,-7.88
2018-03-02T03:37:16.982Z,-7.89
2018-03-02T03:38:16.989Z,-7.68
2018-03-02T03:39:16.993Z,-7.72
2018-03-02T03:40:17.001Z,-7.79
2018-03-02T03:41:17.013Z,-7.70
2018-03-02T03:42:17.016Z,-7.86
2018-03-02T03:43:17.061Z,-7.82
2018-03-02T03:44:17.058Z,-7.67
2018-03-02T03:45:17.047Z,-7.74
2018-03-02T03:46:17.115Z,-7.83
2018-03-02T03:47:17.056Z,-7.75
2018-03-02T03:48:17.105Z,-7.99
2018-03-02T03:49:17.093Z,-7.91
2018-03-02T03:50:17.075Z,-7.93
2018-03-02T03:51:17.118Z,-8.03
2018-03-02T03:52:17.096Z,-8.07
2018-03-02T03:53:17.099Z,-8.03
2018-03-02T03:54:17.108Z,-7.91
2018-03-02T03:55:17.125Z,-8.03
2018-03-02T03:56:17.120Z,-7.99
2018-03-02T03:57:17.121Z,-8.05
2018-03-02T03:58:17.150Z,-7.97
2018-03-02T03:59:17.149Z,-7.92
2018-03-02T04:00:17.147Z,-7.91
2018-03-02T04:01:17.185Z,-7.67
2018-03-02T04:02:17.162Z,-7.86
2018-03-02T04:03:17.182Z,-7.85
2018-03-02T04:04:17.269Z,-7.97
2018-03-02T04:05:17.185Z,-8.04
2018-03-02T04:06:17.214Z,-8.10
2018-03-02T04:07:17.210Z,-8.23
2018-03-02T04:08:17.235Z,-8.03
2018-03-02T04:09:17.236Z,-8.16
2018-03-02T04:10:17.283Z,-8.03
2018-03-02T04:11:17.241Z,-8.03
2018-03-02T04:12:17.264Z,-7.97
2018-03-02T04:13:17.260Z,-8.08
2018-03-02T04:14:17.278Z,-8.15
2018-03-02T04:15:17.278Z,-7.79
2018-03-02T04:16:17.289Z,-7.83
2018-03-02T04:17:17.290Z,-8.04
2018-03-02T04:18:17.292Z,-8.04
2018-03-02T04:19:17.312Z,-8.08
2018-03-02T04:20:17.310Z,-8.01
2018-03-02T04:21:17.328Z,-8.10
2018-03-02T04:22:17.339Z,-8.04
2018-03-02T04:23:17.362Z,-8.16
2018-03-02T04:24:17.350Z,-7.99
2018-03-02T04:25:17.339Z,-8.16
2018-03-02T04:26:17.357Z,-8.03
2018-03-02T04:27:17.376Z,-7.93
2018-03-02T04:28:17.361Z,-7.99
2018-03-02T04:29:17.367Z,-8.04
2018-03-02T04:30:17.419Z,-7.92
2018-03-02T04:31:17.408Z,-8.10
2018-03-02T04:32:17.400Z,-8.15
2018-03-02T04:33:17.418Z,-8.05
2018-03-02T04:34:17.440Z,-8.05
2018-03-02T04:35:17.498Z,-7.93
2018-03-02T04:36:17.444Z,-8.04
2018-03-02T04:37:17.427Z,-8.11
2018-03-02T04:38:17.442Z,-8.08
2018-03-02T04:39:17.445Z,-8.25
2018-03-02T04:40:17.514Z,-8.19
2018-03-02T04:41:17.486Z,-8.10
2018-03-02T04:42:17.464Z,-8.19
2018-03-02T04:43:17.497Z,-8.11
2018-03-02T04:44:17.476Z,-8.05
2018-03-02T04:45:17.522Z,-8.28
2018-03-02T04:46:17.520Z,-8.40
2018-03-02T04:47:17.540Z,-8.11
2018-03-02T04:48:17.520Z,-8.34
2018-03-02T04:49:17.517Z,-8.18
2018-03-02T04:50:17.536Z,-8.10
2018-03-02T04:51:17.531Z,-8.23
2018-03-02T04:52:17.582Z,-8.36
2018-03-02T04:53:17.591Z,-8.23
2018-03-02T04:54:17.555Z,-8.15
2018-03-02T04:55:17.625Z,-8.11
2018-03-02T04:56:17.598Z,-8.28
2018-03-02T04:57:17.589Z,-8.28
2018-03-02T04:58:17.612Z,-8.34
2018-03-02T04:59:17.598Z,-8.25
2018-03-02T05:00:17.601Z,-8.43
2018-03-02T05:01:17.626Z,-8.31
2018-03-02T05:02:17.636Z,-8.55
2018-03-02T05:03:17.639Z,-8.25
2018-03-02T05:04:17.634Z,-8.39
2018-03-02T05:05:17.662Z,-8.37
2018-03-02T05:06:17.646Z,-8.39
2018-03-02T05:07:17.661Z,-8.58
2018-03-02T05:08:17.681Z,-8.52
2018-03-02T05:09:17.675Z,-8.54
2018-03-02T05:10:17.665Z,-8.44
2018-03-02T05:11:17.707Z,-8.42
2018-03-02T05:12:17.744Z,-8.47
2018-03-02T05:13:17.721Z,-8.43
2018-03-02T05:14:17.712Z,-8.26
2018-03-02T05:15:17.724Z,-8.43
2018-03-02T05:16:17.721Z,-8.54
2018-03-02T05:17:17.722Z,-8.55
2018-03-02T05:18:17.731Z,-8.44
2018-03-02T05:19:17.754Z,-8.47
2018-03-02T05:20:17.737Z,-8.40
2018-03-02T05:21:17.753Z,-8.29
2018-03-02T05:22:17.767Z,-8.32
2018-03-02T05:23:17.770Z,-8.40
2018-03-02T05:24:17.790Z,-8.42
2018-03-02T05:25:17.780Z,-8.34
2018-03-02T05:26:17.783Z,-8.42
2018-03-02T05:27:17.806Z,-8.39
2018-03-02T05:28:17.805Z,-8.54
2018-03-02T05:29:17.822Z,-8.34
2018-03-02T05:30:17.826Z,-8.29
2018-03-02T05:31:17.829Z,-8.52
2018-03-02T05:32:17.831Z,-8.39
2018-03-02T05:33:17.857Z,-8.52
2018-03-02T05:34:17.851Z,-8.60
2018-03-02T05:35:17.877Z,-8.54
2018-03-02T05:36:17.927Z,-8.39
2018-03-02T05:37:17.870Z,-8.18
2018-03-02T05:38:17.886Z,-8.39
2018-03-02T05:39:17.948Z,-8.43
2018-03-02T05:40:17.897Z,-8.50
2018-03-02T05:41:17.909Z,-8.40
2018-03-02T05:42:17.910Z,-8.54
2018-03-02T05:43:17.936Z,-8.44
2018-03-02T05:44:17.937Z,-8.44
2018-03-02T05:45:17.925Z,-8.43
2018-03-02T05:46:17.944Z,-8.44
2018-03-02T05:47:17.942Z,-8.54
2018-03-02T05:48:17.960Z,-8.47
2018-03-02T05:49:17.953Z,-8.42
2018-03-02T05:50:18.024Z,-8.40
2018-03-02T05:51:17.969Z,-8.44
2018-03-02T05:52:18.008Z,-8.57
2018-03-02T05:53:18.010Z,-8.50
2018-03-02T05:54:17.996Z,-8.39
2018-03-02T05:55:18.082Z,-8.47
2018-03-02T05:56:18.052Z,-8.32
2018-03-02T05:57:18.028Z,-8.42
2018-03-02T05:58:18.072Z,-8.42
2018-03-02T05:59:18.032Z,-8.57
2018-03-02T06:00:18.041Z,-8.46
2018-03-02T06:01:18.057Z,-8.57
2018-03-02T06:02:18.052Z,-8.50
2018-03-02T06:03:18.074Z,-8.60
2018-03-02T06:04:18.071Z,-8.57
2018-03-02T06:05:18.103Z,-8.61
2018-03-02T06:06:18.087Z,-8.47
2018-03-02T06:07:18.111Z,-8.60
2018-03-02T06:08:18.096Z,-8.58
2018-03-02T06:09:18.210Z,-8.55
2018-03-02T06:10:18.117Z,-8.47
2018-03-02T06:11:18.117Z,-8.43
2018-03-02T06:12:18.131Z,-8.39
2018-03-02T06:13:18.135Z,-8.43
2018-03-02T06:14:18.153Z,-8.43
2018-03-02T06:15:18.194Z,-8.52
2018-03-02T06:16:18.170Z,-8.65
2018-03-02T06:17:18.167Z,-8.57
2018-03-02T06:18:18.211Z,-8.54
2018-03-02T06:19:18.264Z,-8.44
2018-03-02T06:20:18.233Z,-8.49
2018-03-02T06:21:18.193Z,-8.61
2018-03-02T06:22:18.222Z,-8.60
2018-03-02T06:23:18.230Z,-8.61
2018-03-02T06:24:18.214Z,-8.57
2018-03-02T06:25:18.222Z,-8.54
2018-03-02T06:26:18.240Z,-8.49
2018-03-02T06:27:18.310Z,-8.58
2018-03-02T06:28:18.257Z,-8.62
2018-03-02T06:29:18.276Z,-8.40
2018-03-02T06:30:18.270Z,-8.39
2018-03-02T06:31:18.274Z,-8.39
2018-03-02T06:32:18.291Z,-8.32
2018-03-02T06:33:18.284Z,-8.29
2018-03-02T06:34:18.302Z,-8.26
2018-03-02T06:35:18.331Z,-8.36
2018-03-02T06:36:18.329Z,-8.47
2018-03-02T06:37:18.327Z,-8.26
2018-03-02T06:38:18.329Z,-8.07
2018-03-02T06:39:18.333Z,-8.08
2018-03-02T06:40:18.375Z,-8.46
2018-03-02T06:41:18.345Z,-8.19
2018-03-02T06:42:18.360Z,-8.34
2018-03-02T06:43:18.380Z,-8.37
2018-03-02T06:44:18.392Z,-8.43
2018-03-02T06:45:18.379Z,-8.52
2018-03-02T06:46:18.385Z,-8.39
2018-03-02T06:47:18.396Z,-8.29
2018-03-02T06:48:18.419Z,-8.13
2018-03-02T06:49:18.431Z,-8.13
2018-03-02T06:50:18.461Z,-7.92
2018-03-02T06:51:18.418Z,-7.99
2018-03-02T06:52:18.426Z,-7.53
2018-03-02T06:53:18.442Z,-7.72
2018-03-02T06:54:18.473Z,-7.89
2018-03-02T06:55:18.454Z,-7.32
2018-03-02T06:56:18.465Z,-7.26
2018-03-02T06:57:18.466Z,-7.28
2018-03-02T06:58:18.485Z,-7.18
2018-03-02T06:59:18.521Z,-6.84
2018-03-02T07:00:18.513Z,-6.74
2018-03-02T07:01:18.510Z,-6.89
2018-03-02T07:02:18.554Z,-6.54
2018-03-02T07:03:18.539Z,-6.54
2018-03-02T07:04:18.586Z,-6.58
2018-03-02T07:05:18.547Z,-6.42
2018-03-02T07:06:18.571Z,-6.46
2018-03-02T07:07:18.569Z,-6.05
2018-03-02T07:08:18.588Z,-6.11
2018-03-02T07:09:18.604Z,-5.66
2018-03-02T07:10:18.605Z,-5.93
2018-03-02T07:11:18.636Z,-5.19
2018-03-02T07:12:18.621Z,-4.85
2018-03-02T07:13:18.649Z,-5.76
2018-03-02T07:14:18.691Z,-5.64
2018-03-02T07:15:18.675Z,-5.24
2018-03-02T07:16:18.689Z,-4.77
2018-03-02T07:17:18.795Z,-4.52
2018-03-02T07:18:18.743Z,-4.75
2018-03-02T07:19:18.715Z,-4.88
2018-03-02T07:20:18.788Z,-4.69
2018-03-02T07:21:18.736Z,-4.16
2018-03-02T07:22:18.738Z,-3.98
2018-03-02T07:23:18.753Z,-4.38
2018-03-02T07:24:18.786Z,-5.45
2018-03-02T07:25:18.775Z,-4.73
2018-03-02T07:26:18.793Z,-4.61
2018-03-02T07:27:18.797Z,-4.87
2018-03-02T07:28:18.816Z,-4.64
2018-03-02T07:29:18.869Z,-4.38
2018-03-02T07:30:18.840Z,-4.78
2018-03-02T07:31:18.853Z,-3.74
2018-03-02T07:32:18.862Z,-4.12
2018-03-02T07:33:18.861Z,-4.50
2018-03-02T07:34:18.875Z,-4.31
2018-03-02T07:35:18.890Z,-4.70
2018-03-02T07:36:18.887Z,-4.22
2018-03-02T07:37:18.906Z,-4.21
2018-03-02T07:38:18.919Z,-4.75
2018-03-02T07:39:18.923Z,-4.71
2018-03-02T07:40:18.945Z,-4.53
2018-03-02T07:41:19.003Z,-4.14
2018-03-02T07:42:18.981Z,-4.25
2018-03-02T07:43:18.989Z,-3.83
2018-03-02T07:44:19.030Z,-4.31
2018-03-02T07:45:19.061Z,-3.56
2018-03-02T07:46:19.003Z,-3.52
2018-03-02T07:47:19.016Z,-3.59
2018-03-02T07:48:19.055Z,-3.56
2018-03-02T07:49:19.044Z,-3.09
2018-03-02T07:50:19.091Z,-3.20
2018-03-02T07:51:19.079Z,-2.94
2018-03-02T07:52:19.086Z,-3.54
2018-03-02T07:53:19.092Z,-3.98
2018-03-02T07:54:19.142Z,-4.04
2018-03-02T07:55:19.110Z,-3.83
2018-03-02T07:56:19.127Z,-3.96
2018-03-02T07:57:19.143Z,-4.13
2018-03-02T07:58:19.153Z,-4.03
2018-03-02T07:59:19.164Z,-3.61
2018-03-02T08:00:19.167Z,-3.15
2018-03-02T08:01:19.182Z,-2.74
2018-03-02T08:02:19.201Z,-2.92
2018-03-02T08:03:19.325Z,-3.25
2018-03-02T08:04:19.256Z,-3.49
2018-03-02T08:05:19.254Z,-2.88
2018-03-02T08:06:19.251Z,-2.70
2018-03-02T08:07:19.270Z,-2.59
2018-03-02T08:08:19.308Z,-3.10
2018-03-02T08:09:19.290Z,-3.07
2018-03-02T08:10:19.299Z,-2.99
2018-03-02T08:11:19.317Z,-2.98
2018-03-02T08:12:19.338Z,-2.74
2018-03-02T08:13:19.333Z,-3.13
2018-03-02T08:14:19.353Z,-2.58
2018-03-02T08:15:19.356Z,-1.94
2018-03-02T08:16:19.373Z,-1.48
2018-03-02T08:17:19.448Z,-2.01
2018-03-02T08:18:19.391Z,-2.22
2018-03-02T08:19:19.408Z,-1.89
2018-03-02T08:20:19.450Z,-2.42
2018-03-02T08:21:19.447Z,-2.47
2018-03-02T08:22:19.478Z,-1.89
2018-03-02T08:23:19.458Z,-2.15
2018-03-02T08:24:19.474Z,-2.73
2018-03-02T08:25:19.497Z,-3.22
2018-03-02T08:26:19.493Z,-2.78
2018-03-02T08:27:19.530Z,-2.65
2018-03-02T08:28:19.539Z,-1.89
2018-03-02T08:29:19.542Z,-2.47
2018-03-02T08:30:19.546Z,-2.37
2018-03-02T08:31:19.575Z,-2.12
2018-03-02T08:32:19.569Z,-1.74
2018-03-02T08:33:19.698Z,-1.15
2018-03-02T08:34:19.599Z,-2.00
2018-03-02T08:35:19.620Z,-2.66
2018-03-02T08:36:19.626Z,-2.21
2018-03-02T08:37:19.642Z,-2.60
2018-03-02T08:38:19.650Z,-2.53
2018-03-02T08:39:19.675Z,-2.91
2018-03-02T08:40:19.673Z,-2.92
2018-03-02T08:41:19.688Z,-2.86
2018-03-02T08:42:19.702Z,-3.01
2018-03-02T08:43:19.706Z,-3.54
2018-03-02T08:44:19.711Z,-3.56
2018-03-02T08:45:19.729Z,-3.99
2018-03-02T08:46:19.740Z,-4.17
2018-03-02T08:47:19.851Z,-4.34
2018-03-02T08:48:19.766Z,-4.53
2018-03-02T08:49:19.785Z,-4.12
2018-03-02T08:50:19.845Z,-4.03
2018-03-02T08:51:19.814Z,-4.17
2018-03-02T08:52:19.814Z,-3.99
2018-03-02T08:53:19.798Z,-4.06
2018-03-02T08:54:19.818Z,-4.13
2018-03-02T08:55:19.838Z,-3.82
2018-03-02T08:56:19.850Z,-3.89
2018-03-02T08:57:19.867Z,-3.95
2018-03-02T08:58:19.872Z,-3.69
2018-03-02T08:59:19.858Z,-3.99
2018-03-02T09:00:19.878Z,-3.98
2018-03-02T09:01:19.877Z,-4.57
2018-03-02T09:02:19.895Z,-4.27
2018-03-02T09:03:19.914Z,-3.83
2018-03-02T09:04:19.913Z,-4.25
2018-03-02T09:05:19.917Z,-4.32
2018-03-02T09:06:19.924Z,-4.06
2018-03-02T09:07:19.930Z,-3.69
2018-03-02T09:08:19.958Z,-3.86
2018-03-02T09:09:19.950Z,-3.75
2018-03-02T09:10:19.953Z,-3.64
2018-03-02T09:11:19.987Z,-3.83
2018-03-02T09:12:19.972Z,-3.99
2018-03-02T09:13:19.991Z,-3.46
2018-03-02T09:14:20.000Z,-3.74
2018-03-02T09:15:20.005Z,-3.80
2018-03-02T09:16:20.019Z,-3.64
2018-03-02T09:17:20.030Z,-3.54
2018-03-02T09:18:20.074Z,-3.22
2018-03-02T09:19:20.035Z,-3.64
2018-03-02T09:20:20.056Z,-3.44
2018-03-02T09:21:20.067Z,-3.55
2018-03-02T09:22:20.088Z,-3.51
2018-03-02T09:23:20.076Z,-3.58
2018-03-02T09:24:20.084Z,-3.49
2018-03-02T09:25:20.100Z,-3.25
2018-03-02T09:26:20.123Z,-2.99
2018-03-02T09:27:20.165Z,-2.99
2018-03-02T09:28:20.109Z,-3.15
2018-03-02T09:29:20.121Z,-2.92
2018-03-02T09:30:20.137Z,-2.94
2018-03-02T09:31:20.135Z,-2.73
2018-03-02T09:32:20.152Z,-2.55
2018-03-02T09:33:20.164Z,-2.44
2018-03-02T09:34:20.175Z,-2.60
2018-03-02T09:35:20.190Z,-3.04
2018-03-02T09:36:20.185Z,-2.91
2018-03-02T09:37:20.226Z,-2.59
2018-03-02T09:38:20.220Z,-2.76
2018-03-02T09:39:20.210Z,-2.47
2018-03-02T09:40:20.220Z,-2.42
2018-03-02T09:41:20.239Z,-2.58
2018-03-02T09:42:20.287Z,-2.83
2018-03-02T09:43:20.248Z,-2.42
2018-03-02T09:44:20.255Z,-2.62
2018-03-02T09:45:20.279Z,-2.59
2018-03-02T09:46:20.293Z,-2.13
2018-03-02T09:47:20.281Z,-2.35
2018-03-02T09:48:20.344Z,-2.07
2018-03-02T09:49:20.302Z,-2.47
2018-03-02T09:50:20.338Z,-2.35
2018-03-02T09:51:20.371Z,-2.16
2018-03-02T09:52:20.346Z,-2.18
2018-03-02T09:53:20.354Z,-2.00
2018-03-02T09:54:20.363Z,-2.08
2018-03-02T09:55:20.363Z,-2.15
2018-03-02T09:56:20.400Z,-2.07
2018-03-02T09:57:20.385Z,-2.22
2018-03-02T09:58:20.380Z,-2.28
2018-03-02T09:59:20.438Z,-1.94
2018-03-02T10:00:20.410Z,-2.00
2018-03-02T10:01:20.415Z,-2.05
2018-03-02T10:02:20.437Z,-2.71
2018-03-02T10:03:20.446Z,-2.65
2018-03-02T10:04:20.455Z,-2.69
2018-03-02T10:05:20.469Z,-2.47
2018-03-02T10:06:20.474Z,-2.25
2018-03-02T10:07:20.508Z,-2.15
2018-03-02T10:08:20.486Z,-2.07
2018-03-02T10:09:20.516Z,-2.01
2018-03-02T10:10:20.501Z,-2.34
2018-03-02T10:11:20.531Z,-2.10
2018-03-02T10:12:20.526Z,-2.16
2018-03-02T10:13:20.623Z,-2.16
2018-03-02T10:14:20.544Z,-1.61
2018-03-02T10:15:20.557Z,-1.79
2018-03-02T10:16:20.556Z,-1.83
2018-03-02T10:17:20.596Z,-2.07
2018-03-02T10:18:20.577Z,-2.12
2018-03-02T10:19:20.599Z,-1.68
2018-03-02T10:20:20.614Z,-1.47
2018-03-02T10:21:20.615Z,-1.46
2018-03-02T10:22:20.631Z,-1.48
2018-03-02T10:23:20.665Z,-1.66
2018-03-02T10:24:20.630Z,-1.94
2018-03-02T10:25:20.656Z,-1.76
2018-03-02T10:26:20.649Z,-1.74
2018-03-02T10:27:20.665Z,-1.92
2018-03-02T10:28:20.671Z,-1.89
2018-03-02T10:29:20.681Z,-1.76
2018-03-02T10:30:20.759Z,-1.72
2018-03-02T10:31:20.752Z,-1.86
2018-03-02T10:32:20.738Z,-1.64
2018-03-02T10:33:20.725Z,-1.33
2018-03-02T10:34:20.732Z,-1.35
2018-03-02T10:35:20.750Z,-1.61
2018-03-02T10:36:20.755Z,-2.12
2018-03-02T10:37:20.779Z,-2.05
2018-03-02T10:38:20.761Z,-2.12
2018-03-02T10:39:20.775Z,-1.72
2018-03-02T10:40:20.790Z,-1.40
2018-03-02T10:41:20.797Z,-1.59
2018-03-02T10:42:20.933Z,-1.56
2018-03-02T10:43:20.808Z,-1.48
2018-03-02T10:44:20.826Z,-1.59
2018-03-02T10:45:20.839Z,-1.30
2018-03-02T10:46:20.852Z,-1.29
2018-03-02T10:47:21.054Z,-1.17
2018-03-02T10:48:20.871Z,-1.33
2018-03-02T10:49:20.891Z,-1.43
2018-03-02T10:50:20.883Z,-1.38
2018-03-02T10:51:20.891Z,-1.51
2018-03-02T10:52:20.898Z,-1.56
2018-03-02T10:53:20.927Z,-1.51
2018-03-02T10:54:20.919Z,-1.51
2018-03-02T10:55:20.931Z,-1.72
2018-03-02T10:56:20.962Z,-1.79
2018-03-02T10:57:20.953Z,-1.64
2018-03-02T10:58:20.962Z,-1.89
2018-03-02T10:59:20.976Z,-1.59
2018-03-02T11:00:20.983Z,-1.50
2018-03-02T11:01:20.990Z,-1.54
2018-03-02T11:02:21.000Z,-1.90
2018-03-02T11:03:21.004Z,-1.76
2018-03-02T11:04:21.056Z,-1.94
2018-03-02T11:05:21.021Z,-1.79
2018-03-02T11:06:21.042Z,-1.69
2018-03-02T11:07:21.058Z,-1.61
2018-03-02T11:08:21.090Z,-1.48
2018-03-02T11:09:21.104Z,-1.48
2018-03-02T11:10:21.080Z,-1.47
2018-03-02T11:11:21.091Z,-1.77
2018-03-02T11:12:21.112Z,-1.97
2018-03-02T11:13:21.099Z,-1.72
2018-03-02T11:14:21.164Z,-1.58
2018-03-02T11:15:21.140Z,-1.43
2018-03-02T11:16:21.143Z,-1.23
2018-03-02T11:17:21.147Z,-1.54
2018-03-02T11:18:21.177Z,-1.38
2018-03-02T11:19:21.160Z,-1.41
2018-03-02T11:20:21.168Z,-1.19
2018-03-02T11:21:21.202Z,-1.64
2018-03-02T11:22:21.194Z,-1.87
2018-03-02T11:23:21.217Z,-1.53
2018-03-02T11:24:21.250Z,-1.84
2018-03-02T11:25:21.223Z,-1.72
2018-03-02T11:26:21.252Z,-1.95
2018-03-02T11:27:21.243Z,-1.74
2018-03-02T11:28:21.273Z,-1.89
2018-03-02T11:29:21.271Z,-1.66
2018-03-02T11:30:21.269Z,-1.59
2018-03-02T11:31:21.273Z,-1.56
2018-03-02T11:32:21.377Z,-1.66
2018-03-02T11:33:21.306Z,-1.37
2018-03-02T11:34:21.323Z,-1.29
2018-03-02T11:35:21.356Z,-1.37
2018-03-02T11:36:21.335Z,-1.25
2018-03-02T11:37:21.344Z,-1.01
2018-03-02T11:38:21.379Z,-0.91
2018-03-02T11:39:21.368Z,-1.23
2018-03-02T11:40:21.361Z,-1.20
2018-03-02T11:41:21.394Z,-1.43
2018-03-02T11:42:21.399Z,-1.48
2018-03-02T11:43:21.388Z,-1.56
2018-03-02T11:44:21.404Z,-1.41
2018-03-02T11:45:21.431Z,-1.17
2018-03-02T11:46:21.433Z,-1.19
2018-03-02T11:47:21.439Z,-1.50
2018-03-02T11:48:21.454Z,-1.47
2018-03-02T11:49:21.453Z,-1.35
2018-03-02T11:50:21.494Z,-1.15
2018-03-02T11:51:21.468Z,-1.46
2018-03-02T11:52:21.497Z,-1.33
2018-03-02T11:53:21.508Z,-1.37
2018-03-02T11:54:21.564Z,-1.48
2018-03-02T11:55:21.514Z,-1.47
2018-03-02T11:56:21.524Z,-1.47
2018-03-02T11:57:21.528Z,-1.38
2018-03-02T11:58:21.574Z,-1.47
2018-03-02T11:59:21.562Z,-1.51
2018-03-02T12:00:21.600Z,-1.47
2018-03-02T12:01:21.593Z,-1.29
2018-03-02T12:02:21.575Z,-1.44
2018-03-02T12:03:21.616Z,-1.58
2018-03-02T12:04:21.584Z,-1.38
2018-03-02T12:05:21.643Z,-1.20
2018-03-02T12:06:21.667Z,-1.61
2018-03-02T12:07:21.615Z,-1.51
2018-03-02T12:08:21.692Z,-1.23
2018-03-02T12:09:21.641Z,-1.15
2018-03-02T12:10:21.659Z,-1.05
2018-03-02T12:11:21.668Z,-1.35
2018-03-02T12:12:21.672Z,-1.20
2018-03-02T12:13:21.706Z,-1.22
2018-03-02T12:14:21.701Z,-1.37
2018-03-02T12:15:21.720Z,-1.15
2018-03-02T12:16:21.729Z,-0.90
2018-03-02T12:17:21.719Z,-1.02
2018-03-02T12:18:21.717Z,-1.09
2018-03-02T12:19:21.765Z,-1.19
2018-03-02T12:20:21.767Z,-0.70
2018-03-02T12:21:21.770Z,-0.75
2018-03-02T12:22:21.784Z,-1.01
2018-03-02T12:23:21.792Z,-0.78
2018-03-02T12:24:21.799Z,-1.02
2018-03-02T12:25:21.804Z,-0.97
2018-03-02T12:26:21.810Z,-1.19
2018-03-02T12:27:21.817Z,-1.07
2018-03-02T12:28:21.851Z,-1.05
2018-03-02T12:29:21.840Z,-1.01
2018-03-02T12:30:21.837Z,-0.91
2018-03-02T12:31:21.850Z,-0.82
2018-03-02T12:32:21.856Z,-0.82
2018-03-02T12:33:21.885Z,-0.54
2018-03-02T12:34:21.874Z,-0.28
2018-03-02T12:35:21.892Z,-0.28
2018-03-02T12:36:21.907Z,-0.64
2018-03-02T12:37:21.913Z,-0.53
2018-03-02T12:38:21.935Z,-0.70
2018-03-02T12:39:22.009Z,-0.39
2018-03-02T12:40:21.943Z,-0.28
2018-03-02T12:41:21.950Z,-0.25
2018-03-02T12:42:21.966Z,-0.64
2018-03-02T12:43:22.026Z,-0.74
2018-03-02T12:44:21.983Z,-0.52
2018-03-02T12:45:21.988Z,-0.50
2018-03-02T12:46:21.996Z,-0.36
2018-03-02T12:47:22.026Z,-0.44
2018-03-02T12:48:22.019Z,-0.29
2018-03-02T12:49:22.031Z,-0.64
2018-03-02T12:50:22.057Z,-0.29
2018-03-02T12:51:22.081Z,-0.18
2018-03-02T12:52:22.053Z,0.00